Time;durP1;ratioP1;P1;durP2;ratioP2;P2;SDS_P1;SDS_P2;PMS_P1;PMS_P2;Temp;Humidity;BMP_temperature;BMP_pressure;BME280_temperature;BME280_humidity;BME280_pressure;Samples;Min_cycle;Max_cycle;Signal;HPM_P1;HPM_P2
2021/09/14 00:00:30;;;;;;;;;9.33;8.00;;;;;23.09;52.66;100812.59;4941778;28;45163;-87
2021/09/14 00:02:56;;;;;;;;;8.00;7.33;;;;;23.16;52.67;100832.00;4941418;28;45427;-87
2021/09/14 00:05:21;;;;;;;;;5.67;5.67;;;;;23.00;52.75;100803.03;4924689;28;45414;-87
2021/09/14 00:07:47;;;;;;;;;7.00;6.67;;;;;23.09;52.81;100823.31;4924633;28;47822;-86
2021/09/14 00:10:12;;;;;;;;;7.00;7.00;;;;;23.16;52.33;100847.22;4942068;28;45438;-87
2021/09/14 00:12:38;;;;;;;;;8.00;5.67;;;;;23.02;52.42;100832.47;4941989;28;45425;-87
2021/09/14 00:15:06;;;;;;;;;6.33;6.33;;;;;23.06;52.65;100835.91;4924591;28;45510;-87
2021/09/14 00:17:31;;;;;;;;;6.00;6.00;;;;;23.10;52.46;100850.97;4940953;28;45357;-87
2021/09/14 00:19:56;;;;;;;;;8.33;8.00;;;;;23.09;53.06;100849.22;4939378;28;45469;-87
2021/09/14 00:22:22;;;;;;;;;6.67;6.00;;;;;22.99;53.04;100832.59;4924048;28;45737;-86
2021/09/14 00:24:47;;;;;;;;;7.67;7.67;;;;;22.98;52.67;100823.66;4942146;28;45370;-87
2021/09/14 00:27:13;;;;;;;;;7.00;6.00;;;;;22.96;52.73;100825.53;4942108;28;46264;-86
2021/09/14 00:29:38;;;;;;;;;7.00;7.00;;;;;22.93;52.61;100825.59;4940737;28;45243;-87
2021/09/14 00:32:04;;;;;;;;;6.00;6.00;;;;;22.98;53.32;100836.19;4940901;28;45267;-87
2021/09/14 00:34:29;;;;;;;;;7.00;7.00;;;;;22.93;53.16;100841.69;4941213;28;45224;-87
2021/09/14 00:36:55;;;;;;;;;7.00;7.00;;;;;22.92;52.98;100842.63;4940770;28;45349;-86
2021/09/14 00:39:20;;;;;;;;;9.00;6.00;;;;;22.92;52.89;100839.06;4942097;28;45251;-86
2021/09/14 00:41:45;;;;;;;;;9.00;9.00;;;;;22.89;52.75;100838.25;4939608;28;45406;-87
2021/09/14 00:44:11;;;;;;;;;7.67;6.00;;;;;22.88;52.87;100846.34;4941895;28;45395;-87
2021/09/14 00:46:37;;;;;;;;;9.00;7.33;;;;;22.83;52.68;100840.22;4940608;28;45668;-87
2021/09/14 00:49:03;;;;;;;;;7.00;7.00;;;;;22.81;53.30;100831.38;4940965;28;45306;-89
2021/09/14 00:51:28;;;;;;;;;7.00;7.00;;;;;22.79;53.13;100832.31;4923832;28;45532;-89
2021/09/14 00:53:54;;;;;;;;;8.00;8.00;;;;;22.80;53.37;100838.56;4939599;28;45332;-86
2021/09/14 00:56:19;;;;;;;;;9.00;7.67;;;;;22.72;53.20;100827.19;4939006;28;47524;-87
2021/09/14 00:58:45;;;;;;;;;9.00;7.00;;;;;22.72;53.40;100827.19;4923468;28;45754;-88
2021/09/14 01:01:11;;;;;;;;;7.33;6.67;;;;;22.75;53.17;100837.81;4922942;28;45489;-87
2021/09/14 01:03:37;;;;;;;;;5.33;5.33;;;;;22.67;53.60;100838.91;4941071;28;45373;-86
2021/09/14 01:06:03;;;;;;;;;6.00;6.00;;;;;22.63;53.66;100839.91;4941001;28;45896;-86
2021/09/14 01:08:33;;;;;;;;;8.00;8.00;;;;;22.72;53.67;100857.53;4940601;28;45417;-88
2021/09/14 01:11:01;;;;;;;;;6.00;6.00;;;;;22.67;53.23;100848.78;4940243;28;45506;-87
2021/09/14 01:13:26;;;;;;;;;5.00;5.00;;;;;22.55;53.37;100829.44;4940195;28;45469;-87
2021/09/14 01:15:52;;;;;;;;;8.67;7.67;;;;;22.58;53.82;100825.81;4939516;28;45609;-86
2021/09/14 01:18:17;;;;;;;;;7.00;7.00;;;;;22.55;53.67;100832.13;4938470;28;45490;-86
2021/09/14 01:20:42;;;;;;;;;7.67;7.67;;;;;22.58;53.93;100844.56;4922984;28;45438;-86
2021/09/14 01:23:08;;;;;;;;;8.33;6.00;;;;;22.59;53.81;100842.75;4940719;28;45395;-87
2021/09/14 01:25:33;;;;;;;;;8.00;7.67;;;;;22.62;53.48;100850.69;4943093;28;45416;-87
2021/09/14 01:28:04;;;;;;;;;8.33;7.00;;;;;22.66;53.96;100857.72;4940418;28;45356;-86
2021/09/14 01:30:31;;;;;;;;;7.00;7.00;;;;;22.57;54.16;100850.81;4940417;28;45419;-87
2021/09/14 01:32:56;;;;;;;;;7.67;6.33;;;;;22.58;53.63;100849.03;4940565;28;45502;-87
2021/09/14 01:35:27;;;;;;;;;6.00;6.00;;;;;22.64;53.93;100864.91;4940112;28;46144;-87
2021/09/14 01:37:53;;;;;;;;;7.00;7.00;;;;;22.63;53.75;100868.53;4923273;28;45357;-86
2021/09/14 01:40:19;;;;;;;;;8.00;6.67;;;;;22.59;53.45;100869.56;4924005;28;45464;-86
2021/09/14 01:42:45;;;;;;;;;7.00;7.00;;;;;22.60;53.72;100877.53;4924553;28;45402;-87
2021/09/14 01:45:11;;;;;;;;;9.00;8.00;;;;;22.61;53.84;100894.50;4929138;28;48169;-86
2021/09/14 01:47:38;;;;;;;;;9.00;7.67;;;;;22.59;53.55;100899.00;4943369;28;45517;-87
2021/09/14 01:50:07;;;;;;;;;8.33;8.00;;;;;22.49;53.78;100885.88;4945988;28;45232;-89
2021/09/14 01:52:33;;;;;;;;;9.33;6.67;;;;;22.50;54.23;100897.50;4943847;28;45181;-87
2021/09/14 01:55:07;;;;;;;;;7.33;7.33;;;;;22.60;54.04;100922.19;4940427;28;45602;-88
2021/09/14 01:57:35;;;;;;;;;7.67;6.33;;;;;22.54;54.03;100912.53;4940767;28;45344;-87
2021/09/14 02:00:04;;;;;;;;;7.67;6.00;;;;;22.59;54.04;100921.31;4946538;28;45311;-88
2021/09/14 02:05:31;;;;;;;;;9.00;7.33;;;;;22.59;54.24;100904.38;4950455;28;44941;-87
2021/09/14 02:59:37;;;;;;;;;6.00;6.00;;;;;22.48;57.38;100809.16;4861845;29;45598;-87
2021/09/14 03:02:04;;;;;;;;;9.00;9.00;;;;;22.39;57.35;100785.31;4861731;29;45532;-89
2021/09/14 03:04:30;;;;;;;;;6.33;6.33;;;;;22.41;58.25;100800.44;4861610;29;45392;-89
2021/09/14 03:06:55;;;;;;;;;7.67;7.67;;;;;22.34;58.42;100790.81;4861707;29;45361;-87
2021/09/14 03:09:21;;;;;;;;;7.33;7.33;;;;;22.29;59.00;100782.91;4882231;28;45490;-86
2021/09/14 03:11:46;;;;;;;;;5.33;5.33;;;;;22.27;59.44;100787.44;4939376;28;45367;-88
2021/09/14 03:14:12;;;;;;;;;8.67;8.67;;;;;22.21;59.81;100782.28;4938051;28;45369;-89
2021/09/14 03:16:38;;;;;;;;;8.33;8.00;;;;;22.23;59.82;100804.53;4938467;28;45432;-87
2021/09/14 03:19:04;;;;;;;;;7.33;7.33;;;;;22.12;60.17;100799.53;4937590;28;47074;-88
2021/09/14 03:21:30;;;;;;;;;12.67;10.00;;;;;22.13;60.79;100811.97;4921455;28;45674;-88
2021/09/14 03:23:56;;;;;;;;;8.00;8.00;;;;;22.07;61.02;100813.03;4937569;28;45462;-89
2021/09/14 03:26:21;;;;;;;;;8.00;7.00;;;;;21.99;61.13;100796.34;4923571;28;45411;-90
2021/09/14 03:28:47;;;;;;;;;8.67;8.67;;;;;21.91;61.10;100801.94;4922240;28;46170;-88
2021/09/14 03:31:15;;;;;;;;;9.67;8.67;;;;;21.90;61.27;100793.91;4939331;28;45297;-88
2021/09/14 03:33:41;;;;;;;;;10.00;9.00;;;;;21.82;61.09;100780.75;4944781;28;45381;-87
2021/09/14 03:36:07;;;;;;;;;12.67;9.00;;;;;21.82;61.77;100770.03;4944887;28;45494;-87
2021/09/14 03:38:32;;;;;;;;;11.67;11.00;;;;;21.85;61.94;100778.88;4950957;28;45679;-88
2021/09/14 03:40:58;;;;;;;;;8.67;8.67;;;;;21.72;62.09;100754.25;4935621;28;44907;-87
2021/09/14 03:43:23;;;;;;;;;9.67;9.00;;;;;21.74;62.28;100765.78;4946403;28;45223;-88
2021/09/14 03:45:48;;;;;;;;;10.00;7.33;;;;;21.76;62.20;100773.78;4946055;28;45340;-89
2021/09/14 03:48:15;;;;;;;;;9.33;9.33;;;;;21.68;62.25;100767.78;4959068;28;45360;-88
2021/09/14 03:50:41;;;;;;;;;13.33;11.67;;;;;21.72;62.64;100764.09;4960993;28;45263;-87
2021/09/14 03:53:07;;;;;;;;;13.67;10.00;;;;;21.67;62.90;100749.94;4966989;28;44736;-88
2021/09/14 03:55:32;;;;;;;;;8.00;8.00;;;;;21.61;62.81;100759.94;4968087;28;44660;-88
2021/09/14 03:57:58;;;;;;;;;11.00;10.00;;;;;21.63;61.49;100755.41;4968636;28;45389;-90
2021/09/14 04:00:24;;;;;;;;;9.67;9.33;;;;;21.58;62.41;100748.41;4965894;28;44819;-87
2021/09/14 04:02:53;;;;;;;;;10.00;10.00;;;;;21.59;62.45;100761.75;4961744;28;45358;-87
2021/09/14 04:10:36;;;;;;;;;12.00;8.33;;;;;21.52;62.39;100742.34;4906423;29;44783;-88
2021/09/14 04:13:02;;;;;;;;;7.00;7.00;;;;;21.57;62.53;100754.69;4908145;29;44802;-88
2021/09/14 04:15:27;;;;;;;;;8.00;8.00;;;;;21.57;62.65;100763.59;4891301;29;45388;-88
2021/09/14 04:17:53;;;;;;;;;8.67;8.67;;;;;21.52;62.41;100761.06;4898414;29;45501;-88
2021/09/14 04:20:18;;;;;;;;;9.00;9.00;;;;;21.54;62.46;100776.16;4888408;29;45339;-87
2021/09/14 04:22:44;;;;;;;;;10.67;9.67;;;;;21.47;61.95;100764.78;4894971;29;45339;-87
2021/09/14 04:25:10;;;;;;;;;10.00;10.00;;;;;21.51;62.40;100771.81;4900450;29;44803;-87
2021/09/14 04:27:35;;;;;;;;;10.00;10.00;;;;;21.54;62.05;100769.03;4898066;29;46306;-88
2021/09/14 04:30:01;;;;;;;;;14.00;10.67;;;;;21.49;62.50;100762.94;4902016;29;44913;-87
2021/09/14 04:32:26;;;;;;;;;8.00;6.00;;;;;21.57;62.32;100770.75;4888655;29;45406;-88
2021/09/14 04:34:51;;;;;;;;;12.00;11.67;;;;;21.51;63.15;100748.59;4904571;29;44725;-88
2021/09/14 04:37:17;;;;;;;;;12.33;10.33;;;;;21.56;63.54;100747.59;4890698;29;46375;-87
2021/09/14 04:39:43;;;;;;;;;12.33;11.33;;;;;21.44;64.30;100706.03;4910410;28;44801;-88
2021/09/14 04:42:08;;;;;;;;;12.33;10.67;;;;;21.52;64.56;100687.97;4909516;28;45044;-87
2021/09/14 04:44:34;;;;;;;;;12.00;11.00;;;;;21.47;65.00;100664.03;4908185;28;44793;-87
2021/09/14 04:46:59;;;;;;;;;10.67;10.67;;;;;21.48;65.07;100643.50;4922679;28;45153;-88
2021/09/14 04:49:24;;;;;;;;;12.00;10.67;;;;;21.44;65.75;100629.38;4963231;28;44809;-88
2021/09/14 04:51:50;;;;;;;;;10.00;10.00;;;;;21.30;65.56;100624.41;4964468;28;45060;-88
2021/09/14 04:54:15;;;;;;;;;13.00;10.33;;;;;21.31;66.26;100641.34;4964115;28;44734;-88
2021/09/14 04:56:41;;;;;;;;;12.00;9.67;;;;;21.34;66.02;100652.81;4963561;28;45358;-89
2021/09/14 04:59:06;;;;;;;;;13.67;11.33;;;;;21.27;66.12;100652.13;4956991;28;45413;-88
2021/09/14 05:01:31;;;;;;;;;14.67;11.33;;;;;21.29;66.19;100662.78;4958534;28;45364;-89
2021/09/14 05:03:57;;;;;;;;;9.00;8.67;;;;;21.20;66.36;100658.56;4961707;28;44890;-88
2021/09/14 05:06:22;;;;;;;;;11.67;10.00;;;;;21.18;66.70;100647.03;4965846;28;45451;-88
2021/09/14 05:08:47;;;;;;;;;12.00;11.00;;;;;21.25;67.12;100678.03;4963168;28;44731;-89
2021/09/14 05:11:13;;;;;;;;;12.00;10.67;;;;;21.15;66.85;100674.72;4948282;28;45998;-88
2021/09/14 05:13:39;;;;;;;;;15.00;11.00;;;;;21.07;66.18;100666.03;4949294;28;45161;-88
2021/09/14 05:16:05;;;;;;;;;12.67;11.00;;;;;21.07;66.77;100689.25;4931648;28;46129;-87
2021/09/14 05:18:30;;;;;;;;;14.33;10.67;;;;;21.15;66.84;100708.63;4947167;28;45335;-87
2021/09/14 05:20:57;;;;;;;;;13.67;12.00;;;;;21.08;66.92;100702.56;4947992;28;44896;-88
2021/09/14 05:23:32;;;;;;;;;11.67;10.33;;;;;21.08;67.07;100718.59;4964733;28;44666;-87
2021/09/14 05:26:01;;;;;;;;;12.67;12.67;;;;;21.11;67.09;100736.34;4960214;28;45655;-85
2021/09/14 05:28:26;;;;;;;;;11.00;11.00;;;;;21.13;66.91;100731.84;4939898;28;45327;-85
2021/09/14 05:30:52;;;;;;;;;11.00;11.00;;;;;21.02;67.21;100716.09;4957374;28;45214;-87
2021/09/14 05:33:18;;;;;;;;;13.33;10.67;;;;;21.08;67.30;100737.28;4956707;28;45355;-86
2021/09/14 05:35:46;;;;;;;;;9.00;8.67;;;;;20.98;67.04;100725.09;4956377;28;45347;-86
2021/09/14 05:38:13;;;;;;;;;12.00;11.67;;;;;21.08;67.25;100752.44;4957294;28;45137;-87
2021/09/14 05:40:39;;;;;;;;;12.00;12.00;;;;;20.99;67.38;100748.22;4956031;28;45485;-87
2021/09/14 05:43:04;;;;;;;;;11.67;11.67;;;;;20.97;67.52;100760.72;4948563;28;45311;-86
2021/09/14 05:45:31;;;;;;;;;11.67;11.00;;;;;20.93;67.86;100766.16;4949666;28;45288;-86
2021/09/14 05:47:57;;;;;;;;;15.33;12.33;;;;;21.00;67.17;100787.41;4954750;28;45421;-88
2021/09/14 05:50:22;;;;;;;;;13.00;11.67;;;;;21.02;67.12;100798.94;4957131;28;45420;-86
2021/09/14 05:52:47;;;;;;;;;12.00;11.67;;;;;20.91;67.49;100800.03;4938492;28;45428;-87
2021/09/14 05:55:13;;;;;;;;;14.67;14.67;;;;;20.87;67.22;100803.72;4950887;28;45439;-84
2021/09/14 05:57:38;;;;;;;;;14.33;11.33;;;;;20.97;67.03;100824.84;4959988;28;45346;-85
2021/09/14 06:00:04;;;;;;;;;18.00;14.00;;;;;20.91;67.24;100832.09;4960134;28;45320;-85
2021/09/14 06:02:30;;;;;;;;;16.00;15.00;;;;;20.97;67.66;100863.13;4969472;28;45372;-84
2021/09/14 06:04:55;;;;;;;;;15.00;13.67;;;;;20.96;67.17;100865.84;4974575;28;46474;-82
2021/09/14 06:07:20;;;;;;;;;14.67;14.00;;;;;20.93;66.97;100869.47;4969814;28;44672;-83
2021/09/14 06:09:46;;;;;;;;;15.67;14.00;;;;;20.96;67.32;100876.53;4969067;28;45309;-81
2021/09/14 06:12:11;;;;;;;;;11.33;11.33;;;;;20.92;66.44;100863.25;4966591;28;45106;-82
2021/09/14 06:14:37;;;;;;;;;15.67;14.00;;;;;20.86;67.00;100851.81;4964780;28;45227;-82
2021/09/14 06:17:02;;;;;;;;;14.33;12.33;;;;;20.92;66.83;100867.69;4964172;28;45163;-82
2021/09/14 06:19:28;;;;;;;;;11.67;11.67;;;;;20.86;67.40;100855.38;4963315;28;45272;-82
2021/09/14 06:21:53;;;;;;;;;12.00;12.00;;;;;20.90;66.78;100869.53;4946534;28;45331;-82
2021/09/14 06:24:18;;;;;;;;;14.00;11.33;;;;;20.89;66.86;100871.34;4945176;28;48085;-81
2021/09/14 06:26:44;;;;;;;;;13.67;10.00;;;;;20.88;67.27;100872.25;4962910;28;45461;-82
2021/09/14 06:29:09;;;;;;;;;12.00;10.33;;;;;20.91;67.47;100869.50;4949742;28;45588;-83
2021/09/14 06:31:34;;;;;;;;;15.67;15.33;;;;;20.90;67.82;100867.75;4969782;28;45401;-84
2021/09/14 06:34:00;;;;;;;;;15.33;12.67;;;;;20.89;68.05;100868.66;4972400;28;45300;-81
2021/09/14 06:36:25;;;;;;;;;12.33;11.00;;;;;20.88;67.88;100868.69;4969938;28;45251;-84
2021/09/14 06:38:51;;;;;;;;;12.00;11.67;;;;;20.84;68.45;100870.56;4970684;28;45228;-83
2021/09/14 06:41:16;;;;;;;;;15.00;11.33;;;;;20.79;68.40;100876.00;4976671;28;44705;-81
2021/09/14 06:43:42;;;;;;;;;13.00;12.67;;;;;20.85;68.75;100901.72;4975027;28;45450;-84
2021/09/14 06:46:08;;;;;;;;;12.33;10.67;;;;;20.82;69.10;100904.44;4973055;28;45402;-82
2021/09/14 06:48:33;;;;;;;;;12.33;11.00;;;;;20.80;68.98;100903.59;4965835;28;45304;-87
2021/09/14 06:50:58;;;;;;;;;11.33;11.00;;;;;20.80;69.11;100895.59;4963545;28;45469;-82
2021/09/14 06:53:26;;;;;;;;;10.00;9.67;;;;;20.77;68.71;100883.16;4962886;28;45308;-87
2021/09/14 06:55:51;;;;;;;;;14.33;11.67;;;;;20.73;69.16;100886.81;4959911;28;45414;-91
2021/09/14 06:58:17;;;;;;;;;14.33;11.67;;;;;20.69;69.31;100902.06;4961448;28;45506;-86
2021/09/14 07:00:42;;;;;;;;;15.67;9.67;;;;;20.67;69.63;100895.88;4959583;28;45207;-85
2021/09/14 07:03:07;;;;;;;;;11.33;10.00;;;;;20.57;70.05;100884.53;4941260;28;48022;-85
2021/09/14 07:05:33;;;;;;;;;12.00;8.33;;;;;20.66;69.97;100910.16;4957409;28;45331;-86
2021/09/14 07:07:59;;;;;;;;;13.33;11.67;;;;;20.58;69.94;100896.09;4957613;28;45777;-85
2021/09/14 07:10:24;;;;;;;;;13.00;11.67;;;;;20.60;70.47;100892.44;4957893;28;45406;-86
2021/09/14 07:12:50;;;;;;;;;14.33;12.33;;;;;20.62;70.62;100879.09;4957318;28;45401;-86
2021/09/14 07:15:15;;;;;;;;;12.33;12.33;;;;;20.58;71.05;100848.03;4957418;28;45442;-85
2021/09/14 07:17:43;;;;;;;;;14.33;11.67;;;;;20.60;71.41;100822.16;4959431;28;45450;-86
2021/09/14 07:20:09;;;;;;;;;13.00;9.00;;;;;20.57;71.85;100800.84;4961212;28;45510;-85
2021/09/14 07:22:35;;;;;;;;;14.67;12.00;;;;;20.58;72.66;100806.16;4960624;28;45331;-85
2021/09/14 07:25:01;;;;;;;;;14.67;12.00;;;;;20.61;71.81;100810.53;4960610;28;45640;-85
2021/09/14 07:27:27;;;;;;;;;12.67;12.33;;;;;20.60;72.31;100809.66;4943110;28;45492;-85
2021/09/14 07:29:52;;;;;;;;;12.00;12.00;;;;;20.58;72.61;100805.28;4961594;28;45273;-85
2021/09/14 07:32:18;;;;;;;;;15.00;11.00;;;;;20.63;72.55;100819.41;4944054;28;48172;-85
2021/09/14 07:34:43;;;;;;;;;11.00;10.67;;;;;20.57;72.57;100816.88;4943315;28;45372;-86
2021/09/14 07:37:09;;;;;;;;;11.00;11.00;;;;;20.56;72.53;100815.97;4960847;28;45461;-86
2021/09/14 07:39:34;;;;;;;;;15.00;10.67;;;;;20.63;72.66;100822.06;4943499;28;45429;-86
2021/09/14 07:42:00;;;;;;;;;13.00;11.00;;;;;20.66;72.33;100824.69;4942911;28;48036;-86
2021/09/14 07:44:25;;;;;;;;;10.00;10.00;;;;;20.63;72.31;100819.41;4943389;28;45863;-86
2021/09/14 07:46:51;;;;;;;;;10.00;9.67;;;;;20.65;72.58;100817.56;4943738;28;45447;-85
2021/09/14 07:49:16;;;;;;;;;13.33;12.67;;;;;20.71;72.57;100828.09;4961388;28;45318;-85
2021/09/14 07:51:42;;;;;;;;;12.67;12.67;;;;;20.76;72.60;100844.03;4961467;28;45354;-86
2021/09/14 07:54:07;;;;;;;;;12.33;10.33;;;;;20.79;72.89;100845.75;4960490;28;45373;-85
2021/09/14 07:56:33;;;;;;;;;14.00;10.00;;;;;20.82;72.26;100853.69;4943244;28;45290;-86
2021/09/14 07:58:58;;;;;;;;;9.00;9.00;;;;;20.86;72.50;100860.72;4961220;28;45873;-85
2021/09/14 08:01:24;;;;;;;;;12.00;11.67;;;;;20.81;71.92;100844.78;4960600;28;45409;-86
2021/09/14 08:03:49;;;;;;;;;12.67;11.33;;;;;20.83;72.60;100834.09;4960585;28;45326;-85
2021/09/14 08:06:14;;;;;;;;;13.33;11.00;;;;;20.84;72.23;100841.16;4960632;28;45363;-86
2021/09/14 08:08:40;;;;;;;;;11.67;10.00;;;;;20.89;72.17;100843.72;4942933;28;45469;-84
2021/09/14 08:11:05;;;;;;;;;11.67;11.33;;;;;20.92;72.18;100844.53;4960541;28;45530;-85
2021/09/14 08:13:31;;;;;;;;;12.67;11.33;;;;;20.93;72.52;100846.31;4942649;28;45450;-85
2021/09/14 08:15:56;;;;;;;;;10.00;10.00;;;;;21.00;72.43;100851.53;4943947;28;45204;-86
2021/09/14 08:18:21;;;;;;;;;10.33;10.33;;;;;20.97;72.71;100860.47;4961740;28;45401;-85
2021/09/14 08:20:47;;;;;;;;;12.67;9.67;;;;;21.02;72.09;100877.31;4961810;28;45977;-85
2021/09/14 08:23:12;;;;;;;;;11.00;11.00;;;;;21.05;72.14;100884.34;4944727;28;45319;-85
2021/09/14 08:25:38;;;;;;;;;12.00;12.00;;;;;21.06;72.37;100883.44;4961584;28;45276;-85
2021/09/14 08:28:04;;;;;;;;;12.00;11.00;;;;;21.08;72.05;100883.41;4961635;28;45419;-85
2021/09/14 08:30:30;;;;;;;;;14.00;12.00;;;;;21.03;72.18;100872.81;4961028;28;45343;-85
2021/09/14 08:32:55;;;;;;;;;13.33;12.33;;;;;21.09;72.03;100874.47;4963310;28;45337;-84
2021/09/14 08:35:21;;;;;;;;;13.00;11.00;;;;;21.12;72.59;100872.59;4960737;28;45357;-85
2021/09/14 08:37:46;;;;;;;;;16.00;13.67;;;;;21.09;72.23;100863.78;4961076;28;45286;-85
2021/09/14 08:40:12;;;;;;;;;13.33;12.00;;;;;21.13;72.41;100858.31;4960597;28;45433;-85
2021/09/14 08:42:38;;;;;;;;;15.00;11.33;;;;;21.19;72.43;100870.66;4943008;28;45652;-87
2021/09/14 08:45:06;;;;;;;;;14.33;13.00;;;;;21.22;72.25;100885.72;4960253;28;45340;-85
2021/09/14 08:47:32;;;;;;;;;15.00;12.67;;;;;21.24;72.24;100899.94;4960450;28;45380;-85
2021/09/14 08:49:57;;;;;;;;;10.33;9.00;;;;;21.22;72.52;100902.66;4959942;28;46536;-86
2021/09/14 08:52:23;;;;;;;;;12.33;11.00;;;;;21.26;72.30;100904.34;4942455;28;45327;-86
2021/09/14 08:54:49;;;;;;;;;18.33;12.00;;;;;21.30;72.81;100897.09;4960072;28;45346;-86
2021/09/14 08:57:14;;;;;;;;;14.33;11.00;;;;;21.27;72.17;100890.06;4960261;28;45437;-86
2021/09/14 08:59:48;;;;;;;;;17.33;11.33;;;;;21.38;72.95;100903.13;4942273;28;48093;-86
2021/09/14 09:02:18;;;;;;;;;18.00;13.00;;;;;21.43;72.54;100899.50;4959992;28;45493;-86
2021/09/14 09:05:01;;;;;;;;;13.67;13.33;;;;;21.44;72.41;100894.09;4959819;28;45430;-86
2021/09/14 09:07:35;;;;;;;;;16.00;13.67;;;;;21.44;72.66;100894.09;4942645;28;45439;-86
2021/09/14 09:10:26;;;;;;;;;15.67;12.67;;;;;21.50;72.44;100895.72;4959515;28;45361;-86
2021/09/14 09:12:52;;;;;;;;;13.00;11.67;;;;;21.51;72.37;100895.69;4954788;28;45248;-85
2021/09/14 09:15:31;;;;;;;;;14.00;12.33;;;;;21.52;71.82;100888.53;4959843;28;45219;-85
2021/09/14 09:18:13;;;;;;;;;13.00;12.00;;;;;21.55;72.06;100895.63;4960130;28;45412;-86
2021/09/14 09:20:41;;;;;;;;;14.00;13.67;;;;;21.56;72.26;100898.25;4959380;28;46161;-86
2021/09/14 09:23:12;;;;;;;;;16.67;15.00;;;;;21.59;72.33;100889.28;4942118;28;45776;-86
2021/09/14 09:25:38;;;;;;;;;14.00;13.67;;;;;21.57;72.74;100875.94;4959532;28;45359;-85
2021/09/14 09:28:08;;;;;;;;;11.67;11.67;;;;;21.64;73.11;100880.19;4959500;28;45226;-86
2021/09/14 09:30:37;;;;;;;;;15.67;14.33;;;;;21.58;72.77;100853.59;4959499;28;45514;-86
2021/09/14 09:33:08;;;;;;;;;16.33;14.67;;;;;21.79;73.04;100887.84;4941646;28;45431;-86
2021/09/14 09:35:38;;;;;;;;;14.00;13.33;;;;;21.81;73.29;100880.66;4959733;28;45526;-86
2021/09/14 09:38:07;;;;;;;;;17.00;14.00;;;;;21.98;72.50;100899.84;4942101;28;45417;-85
2021/09/14 09:40:35;;;;;;;;;15.33;14.67;;;;;22.12;72.21;100903.94;4958733;28;46752;-85
2021/09/14 09:43:06;;;;;;;;;12.33;12.00;;;;;22.08;72.10;100887.06;4959211;28;45434;-85
2021/09/14 09:45:32;;;;;;;;;15.33;12.67;;;;;22.12;71.72;100885.19;4941663;28;45343;-85
2021/09/14 09:48:01;;;;;;;;;14.67;13.00;;;;;22.14;72.17;100877.09;4959170;28;45688;-86
2021/09/14 09:50:26;;;;;;;;;16.67;12.67;;;;;22.21;71.83;100884.91;4959459;28;46730;-86
2021/09/14 09:52:52;;;;;;;;;17.33;12.67;;;;;22.20;71.29;100877.81;4941736;28;45368;-86
2021/09/14 09:55:19;;;;;;;;;13.00;11.33;;;;;22.17;71.58;100877.88;4958855;28;45267;-87
2021/09/14 09:57:46;;;;;;;;;15.67;13.00;;;;;22.21;72.00;100873.31;4959346;28;45435;-86
2021/09/14 10:00:13;;;;;;;;;12.67;11.67;;;;;22.28;71.89;100874.00;4959077;28;46618;-85
2021/09/14 10:02:45;;;;;;;;;17.33;15.00;;;;;22.26;71.61;100870.50;4959130;28;45454;-86
2021/09/14 10:05:12;;;;;;;;;11.00;11.00;;;;;22.31;71.45;100868.59;4958972;28;45253;-86
2021/09/14 10:07:42;;;;;;;;;19.00;13.67;;;;;22.35;71.67;100874.72;4959149;28;45489;-86
2021/09/14 10:10:08;;;;;;;;;19.00;14.67;;;;;22.36;71.08;100887.19;4959033;28;45412;-86
2021/09/14 10:12:34;;;;;;;;;22.33;18.67;;;;;22.30;71.12;100875.72;4958893;28;45159;-85
2021/09/14 10:15:09;;;;;;;;;19.33;16.00;;;;;22.39;71.34;100885.31;4941171;28;45694;-86
2021/09/14 10:17:55;;;;;;;;;18.67;16.67;;;;;22.42;70.97;100887.88;4941279;28;45567;-85
2021/09/14 10:20:25;;;;;;;;;16.67;16.67;;;;;22.47;71.80;100893.09;4958552;28;46775;-86
2021/09/14 10:23:06;;;;;;;;;17.33;15.00;;;;;22.54;71.68;100885.75;4958468;28;45337;-86
2021/09/14 10:25:32;;;;;;;;;17.33;17.33;;;;;22.74;71.39;100884.28;4959070;28;45315;-86
2021/09/14 10:28:12;;;;;;;;;12.00;12.00;;;;;23.01;70.90;100889.69;4958988;28;45449;-85
2021/09/14 10:30:38;;;;;;;;;19.67;16.33;;;;;23.18;70.97;100878.41;4958569;28;45464;-85
2021/09/14 10:33:05;;;;;;;;;18.67;14.00;;;;;23.38;70.22;100890.28;4958533;28;45248;-86
2021/09/14 10:35:39;;;;;;;;;20.33;15.33;;;;;23.47;69.60;100883.75;4958392;28;45429;-85
2021/09/14 10:38:10;;;;;;;;;18.00;15.67;;;;;23.62;69.89;100893.06;4958341;28;45338;-86
2021/09/14 10:40:47;;;;;;;;;22.00;19.00;;;;;24.03;68.83;100891.63;4958018;28;46157;-86
2021/09/14 10:43:26;;;;;;;;;16.00;16.00;;;;;24.86;69.03;100900.16;4958126;28;45382;-85
2021/09/14 10:45:52;;;;;;;;;20.00;15.00;;;;;25.55;66.98;100893.81;4958024;28;45282;-86
2021/09/14 10:48:32;;;;;;;;;14.33;14.33;;;;;25.83;65.65;100889.03;4957854;28;45403;-86
2021/09/14 10:51:10;;;;;;;;;15.67;13.67;;;;;26.22;65.26;100896.25;4958562;28;46178;-84
2021/09/14 10:53:36;;;;;;;;;13.67;13.33;;;;;26.57;63.56;100889.28;4961569;28;45381;-85
2021/09/14 10:56:03;;;;;;;;;15.00;13.67;;;;;26.93;62.58;100884.88;4962292;28;45471;-86
2021/09/14 10:58:39;;;;;;;;;13.67;13.67;;;;;27.16;62.72;100886.44;4961580;28;45498;-85
2021/09/14 11:01:06;;;;;;;;;18.33;14.33;;;;;27.36;61.95;100881.88;4961370;28;45485;-85
2021/09/14 11:03:31;;;;;;;;;12.33;12.00;;;;;27.70;61.27;100879.22;4962691;28;45308;-85
2021/09/14 11:05:56;;;;;;;;;16.33;14.67;;;;;28.08;60.39;100883.56;4944171;28;45377;-85
2021/09/14 11:08:26;;;;;;;;;14.67;12.00;;;;;28.41;59.01;100870.97;4962208;28;45413;-86
2021/09/14 11:10:59;;;;;;;;;17.67;16.00;;;;;28.54;58.45;100883.81;4945165;28;47572;-87
2021/09/14 11:13:30;;;;;;;;;15.33;13.33;;;;;28.57;58.06;100882.75;4943969;28;45388;-86
2021/09/14 11:16:04;;;;;;;;;17.33;12.67;;;;;28.36;58.49;100882.97;4945081;28;45351;-86
2021/09/14 11:18:32;;;;;;;;;16.33;14.00;;;;;28.07;57.78;100875.50;4961744;28;45403;-86
2021/09/14 11:21:04;;;;;;;;;16.00;10.00;;;;;27.98;58.00;100872.34;4962305;28;45919;-84
2021/09/14 11:23:29;;;;;;;;;16.33;13.33;;;;;27.85;58.16;100876.69;4970415;28;45329;-87
2021/09/14 11:25:55;;;;;;;;;14.33;12.67;;;;;27.66;58.11;100883.06;4974229;28;45288;-88
2021/09/14 11:28:22;;;;;;;;;12.00;11.33;;;;;27.54;58.28;100881.00;4976249;28;45429;-86
2021/09/14 11:30:54;;;;;;;;;13.33;12.00;;;;;27.51;59.02;100882.03;4963818;28;45334;-85
2021/09/14 11:33:21;;;;;;;;;14.67;12.00;;;;;27.52;58.96;100881.94;4961136;28;45487;-86
2021/09/14 11:35:47;;;;;;;;;15.67;14.33;;;;;27.58;59.51;100871.78;4962199;28;45397;-86
2021/09/14 11:38:18;;;;;;;;;15.00;14.00;;;;;27.83;58.65;100865.97;4962097;28;45516;-85
2021/09/14 11:40:50;;;;;;;;;16.33;14.00;;;;;28.05;59.15;100861.22;4944407;28;47315;-86
2021/09/14 11:43:24;;;;;;;;;12.33;11.33;;;;;28.36;58.16;100870.34;4961724;28;45294;-85
2021/09/14 11:45:52;;;;;;;;;12.00;11.00;;;;;28.58;56.92;100874.56;4962019;28;45390;-85
2021/09/14 11:48:22;;;;;;;;;12.00;11.00;;;;;28.78;56.92;100876.13;4961622;28;45331;-85
2021/09/14 11:51:00;;;;;;;;;12.67;8.33;;;;;28.96;56.15;100867.88;4961714;28;45288;-86
2021/09/14 11:53:26;;;;;;;;;8.00;8.00;;;;;29.04;54.76;100870.19;4962874;28;45333;-87
2021/09/14 11:55:51;;;;;;;;;9.00;9.00;;;;;28.98;55.59;100868.66;4962507;28;45493;-86
2021/09/14 11:58:35;;;;;;;;;9.67;9.67;;;;;28.87;54.34;100863.03;4962364;28;45477;-87
2021/09/14 12:01:09;;;;;;;;;9.33;9.33;;;;;28.75;54.68;100868.19;4962314;28;45445;-85
2021/09/14 12:03:39;;;;;;;;;8.33;7.00;;;;;28.79;55.51;100861.63;4961064;28;45446;-86
2021/09/14 12:06:06;;;;;;;;;13.67;12.00;;;;;28.88;54.34;100857.53;4961181;28;45375;-85
2021/09/14 12:08:39;;;;;;;;;11.33;8.67;;;;;28.89;53.89;100851.13;4944894;28;45397;-86
2021/09/14 12:11:05;;;;;;;;;9.33;9.33;;;;;28.77;54.22;100852.75;4961642;28;45239;-86
2021/09/14 12:13:41;;;;;;;;;8.00;8.00;;;;;28.76;53.72;100855.53;4961306;28;45612;-86